createdAt,value
2022-11-04T00:00:28.695Z,27.02
2022-11-04T00:00:54.810Z,26.99
2022-11-04T00:01:24.793Z,26.98
2022-11-04T00:01:54.825Z,26.99
2022-11-04T00:02:24.948Z,26.96
2022-11-04T00:02:54.934Z,26.98
2022-11-04T00:03:25.048Z,26.99
2022-11-04T00:03:55.041Z,26.99
2022-11-04T00:04:25.159Z,27.01
2022-11-04T00:04:55.276Z,26.98
2022-11-04T00:05:25.396Z,26.99
2022-11-04T00:05:55.388Z,26.99
2022-11-04T00:06:25.504Z,26.96
2022-11-04T00:06:55.621Z,27.01
2022-11-04T00:07:25.745Z,26.98
2022-11-04T00:07:55.859Z,26.98
2022-11-04T00:08:25.977Z,26.95
2022-11-04T00:08:56.093Z,26.98
2022-11-04T00:09:26.093Z,26.98
2022-11-04T00:09:56.211Z,26.96
2022-11-04T00:10:26.326Z,26.98
2022-11-04T00:10:56.322Z,26.98
2022-11-04T00:11:26.441Z,26.98
2022-11-04T00:11:56.553Z,26.96
2022-11-04T00:12:26.674Z,26.96
2022-11-04T00:12:56.672Z,26.96
2022-11-04T00:13:26.789Z,26.96
2022-11-04T00:13:56.907Z,26.96
2022-11-04T00:14:27.023Z,26.96
2022-11-04T00:14:57.020Z,26.98
2022-11-04T00:15:27.162Z,26.98
2022-11-04T00:15:57.133Z,26.99
2022-11-04T00:16:27.257Z,26.98
2022-11-04T00:16:57.368Z,26.96
2022-11-04T00:17:27.487Z,26.98
2022-11-04T00:17:57.484Z,26.98
2022-11-04T00:18:27.603Z,26.96
2022-11-04T00:18:57.721Z,26.96
2022-11-04T00:19:27.722Z,26.94
2022-11-04T00:19:57.736Z,26.95
2022-11-04T00:20:27.830Z,26.96
2022-11-04T00:20:57.944Z,26.96
2022-11-04T00:21:27.942Z,26.98
2022-11-04T00:21:58.055Z,26.96
2022-11-04T00:22:28.175Z,26.98
2022-11-04T00:22:58.171Z,26.96
2022-11-04T00:23:28.289Z,26.96
2022-11-04T00:23:58.402Z,26.96
2022-11-04T00:24:28.522Z,26.98
2022-11-04T00:24:58.519Z,26.96
2022-11-04T00:25:28.768Z,26.98
2022-11-04T00:25:58.747Z,26.96
2022-11-04T00:26:28.741Z,26.94
2022-11-04T00:26:58.742Z,26.96
2022-11-04T00:27:28.738Z,26.96
2022-11-04T00:27:58.847Z,26.96
2022-11-04T00:28:28.853Z,26.95
2022-11-04T00:28:58.956Z,26.95
2022-11-04T00:29:29.079Z,26.94
2022-11-04T00:29:59.070Z,26.95
2022-11-04T00:30:29.282Z,26.95
2022-11-04T00:30:59.238Z,26.95
2022-11-04T00:31:29.355Z,26.95
2022-11-04T00:31:59.472Z,26.95
2022-11-04T00:32:29.590Z,26.95
2022-11-04T00:32:59.582Z,26.94
2022-11-04T00:33:29.718Z,26.96
2022-11-04T00:33:59.705Z,26.92
2022-11-04T00:34:29.825Z,26.94
2022-11-04T00:34:59.949Z,26.95
2022-11-04T00:35:30.060Z,26.96
2022-11-04T00:36:00.175Z,26.96
2022-11-04T00:36:30.171Z,26.95
2022-11-04T00:37:00.291Z,26.95
2022-11-04T00:37:30.289Z,26.95
2022-11-04T00:38:00.375Z,26.96
2022-11-04T00:38:30.463Z,26.92
2022-11-04T00:39:00.538Z,26.94
2022-11-04T00:39:30.620Z,26.95
2022-11-04T00:40:00.697Z,26.95
2022-11-04T00:40:30.782Z,26.95
2022-11-04T00:41:00.858Z,26.95
2022-11-04T00:41:30.947Z,26.95
2022-11-04T00:42:01.026Z,26.96
2022-11-04T00:42:31.104Z,26.96
2022-11-04T00:43:01.187Z,26.94
2022-11-04T00:43:31.272Z,26.94
2022-11-04T00:44:01.353Z,26.95
2022-11-04T00:44:31.446Z,26.94
2022-11-04T00:45:01.525Z,26.94
2022-11-04T00:45:31.611Z,26.95
2022-11-04T00:46:01.721Z,26.94
2022-11-04T00:46:31.778Z,26.94
2022-11-04T00:47:01.862Z,26.95
2022-11-04T00:47:31.955Z,26.92
2022-11-04T00:48:02.039Z,26.91
2022-11-04T00:48:32.162Z,26.92
2022-11-04T00:49:02.160Z,26.95
2022-11-04T00:49:32.271Z,26.94
2022-11-04T00:50:02.384Z,26.92
2022-11-04T00:50:32.537Z,26.95
2022-11-04T00:51:02.544Z,26.94
2022-11-04T00:51:32.529Z,26.92
2022-11-04T00:52:02.523Z,26.94
2022-11-04T00:52:32.521Z,26.95
2022-11-04T00:53:02.632Z,26.94
2022-11-04T00:53:32.627Z,26.94
2022-11-04T00:54:02.621Z,26.92
2022-11-04T00:54:32.751Z,26.92
2022-11-04T00:55:02.858Z,26.91
2022-11-04T00:55:32.982Z,26.92
2022-11-04T00:56:03.095Z,26.91
2022-11-04T00:56:33.215Z,26.92
2022-11-04T00:57:03.333Z,26.94
2022-11-04T00:57:33.328Z,26.91
2022-11-04T00:58:03.440Z,26.94
2022-11-04T00:58:33.564Z,26.89
2022-11-04T00:59:03.672Z,26.89
2022-11-04T00:59:33.792Z,26.92
2022-11-04T01:00:04.012Z,26.92
2022-11-04T01:00:33.967Z,26.91
2022-11-04T01:01:04.047Z,26.91
2022-11-04T01:01:34.325Z,26.91
2022-11-04T01:02:04.289Z,26.91
2022-11-04T01:02:34.252Z,26.89
2022-11-04T01:03:04.198Z,26.89
2022-11-04T01:03:34.318Z,26.88
2022-11-04T01:04:04.313Z,26.92
2022-11-04T01:04:34.434Z,26.89
2022-11-04T01:05:04.621Z,26.89
2022-11-04T01:05:34.578Z,26.92
2022-11-04T01:06:04.689Z,26.89
2022-11-04T01:06:34.684Z,26.89
2022-11-04T01:07:04.803Z,26.92
2022-11-04T01:07:38.435Z,26.92
2022-11-04T01:08:04.823Z,26.91
2022-11-04T01:08:34.822Z,26.89
2022-11-04T01:09:04.814Z,26.89
2022-11-04T01:09:34.933Z,26.89
2022-11-04T01:10:05.050Z,26.91
2022-11-04T01:10:35.170Z,26.89
2022-11-04T01:11:05.289Z,26.91
2022-11-04T01:11:35.282Z,26.91
2022-11-04T01:12:05.402Z,26.89
2022-11-04T01:12:35.397Z,26.91
2022-11-04T01:13:05.833Z,26.91
2022-11-04T01:13:35.649Z,26.89
2022-11-04T01:14:05.623Z,26.91
2022-11-04T01:14:35.740Z,26.91
2022-11-04T01:15:05.856Z,26.89
2022-11-04T01:15:35.849Z,26.89
2022-11-04T01:16:05.849Z,26.88
2022-11-04T01:16:35.988Z,26.87
2022-11-04T01:17:06.083Z,26.89
2022-11-04T01:17:36.075Z,26.88
2022-11-04T01:18:06.482Z,26.92
2022-11-04T01:18:36.251Z,26.91
2022-11-04T01:19:06.245Z,26.91
2022-11-04T01:19:36.234Z,26.91
2022-11-04T01:20:06.351Z,26.91
2022-11-04T01:20:36.350Z,26.89
2022-11-04T01:21:06.342Z,26.89
2022-11-04T01:21:36.460Z,26.88
2022-11-04T01:22:06.591Z,26.91
2022-11-04T01:22:36.585Z,26.88
2022-11-04T01:23:06.706Z,26.91
2022-11-04T01:23:36.823Z,26.89
2022-11-04T01:24:06.947Z,26.88
2022-11-04T01:24:36.939Z,26.88
2022-11-04T01:25:07.061Z,26.88
2022-11-04T01:25:37.178Z,26.88
2022-11-04T01:26:07.292Z,26.89
2022-11-04T01:26:37.406Z,26.88
2022-11-04T01:27:07.528Z,26.89
2022-11-04T01:27:37.522Z,26.87
2022-11-04T01:28:08.054Z,26.88
2022-11-04T01:28:37.677Z,26.87
2022-11-04T01:29:07.791Z,26.88
2022-11-04T01:29:37.787Z,26.88
2022-11-04T01:30:07.902Z,26.88
2022-11-04T01:30:38.017Z,26.88
2022-11-04T01:31:08.138Z,26.85
2022-11-04T01:31:38.250Z,26.89
2022-11-04T01:32:08.400Z,26.88
2022-11-04T01:32:38.367Z,26.87
2022-11-04T01:33:08.488Z,26.87
2022-11-04T01:33:38.600Z,26.85
2022-11-04T01:34:08.718Z,26.87
2022-11-04T01:34:42.477Z,26.85
2022-11-04T01:35:08.729Z,26.88
2022-11-04T01:35:38.843Z,26.89
2022-11-04T01:36:08.965Z,26.88
2022-11-04T01:36:38.960Z,26.85
2022-11-04T01:37:09.079Z,26.85
2022-11-04T01:37:39.072Z,26.87
2022-11-04T01:38:09.628Z,26.87
2022-11-04T01:38:39.196Z,26.85
2022-11-04T01:39:09.277Z,26.85
2022-11-04T01:39:39.359Z,26.84
2022-11-04T01:40:09.443Z,26.85
2022-11-04T01:40:39.518Z,26.87
2022-11-04T01:41:09.595Z,26.87
2022-11-04T01:41:39.673Z,26.85
2022-11-04T01:42:09.757Z,26.87
2022-11-04T01:42:39.836Z,26.85
2022-11-04T01:43:10.345Z,26.88
2022-11-04T01:43:39.935Z,26.87
2022-11-04T01:44:10.015Z,26.88
2022-11-04T01:44:40.097Z,26.87
2022-11-04T01:45:10.177Z,26.85
2022-11-04T01:45:40.255Z,26.84
2022-11-04T01:46:10.337Z,26.85
2022-11-04T01:46:40.415Z,26.84
2022-11-04T01:47:10.492Z,26.85
2022-11-04T01:47:40.595Z,26.84
2022-11-04T01:48:10.571Z,26.85
2022-11-04T01:48:40.686Z,26.87
2022-11-04T01:49:10.802Z,26.84
2022-11-04T01:49:43.467Z,26.87
2022-11-04T01:50:10.860Z,26.84
2022-11-04T01:50:40.852Z,26.85
2022-11-04T01:51:10.971Z,26.82
2022-11-04T01:51:40.964Z,26.84
2022-11-04T01:52:11.090Z,26.85
2022-11-04T01:52:41.083Z,26.87
2022-11-04T01:53:11.583Z,26.84
2022-11-04T01:53:41.270Z,26.82
2022-11-04T01:54:11.388Z,26.84
2022-11-04T01:54:41.382Z,26.84
2022-11-04T01:55:11.504Z,26.84
2022-11-04T01:55:41.493Z,26.84
2022-11-04T01:56:11.613Z,26.82
2022-11-04T01:56:41.647Z,26.85
2022-11-04T01:57:15.005Z,26.84
2022-11-04T01:57:41.850Z,26.82
2022-11-04T01:58:11.845Z,26.79
2022-11-04T01:58:41.960Z,26.84
2022-11-04T01:59:12.082Z,26.82
2022-11-04T01:59:42.077Z,26.82
2022-11-04T02:00:12.197Z,26.84
2022-11-04T02:00:42.311Z,26.82
2022-11-04T02:01:12.518Z,26.82
2022-11-04T02:01:42.649Z,26.82
2022-11-04T02:02:12.781Z,26.82
2022-11-04T02:02:42.815Z,26.81
2022-11-04T02:03:12.702Z,26.82
2022-11-04T02:03:42.815Z,26.84
2022-11-04T02:04:12.939Z,26.82
2022-11-04T02:04:42.934Z,26.84
2022-11-04T02:05:13.051Z,26.82
2022-11-04T02:05:43.167Z,26.79
2022-11-04T02:06:13.164Z,26.84
2022-11-04T02:06:43.159Z,26.81
2022-11-04T02:07:13.280Z,26.82
2022-11-04T02:07:43.277Z,26.82
2022-11-04T02:08:13.275Z,26.82
2022-11-04T02:08:43.389Z,26.84
2022-11-04T02:09:13.400Z,26.81
2022-11-04T02:09:43.378Z,26.81
2022-11-04T02:10:13.497Z,26.82
2022-11-04T02:10:43.614Z,26.82
2022-11-04T02:11:13.609Z,26.82
2022-11-04T02:11:43.726Z,26.84
2022-11-04T02:12:13.846Z,26.81
2022-11-04T02:12:43.843Z,26.82
2022-11-04T02:13:13.963Z,26.82
2022-11-04T02:13:44.081Z,26.82
2022-11-04T02:14:14.086Z,26.81
2022-11-04T02:14:44.071Z,26.81
2022-11-04T02:15:14.188Z,26.81
2022-11-04T02:15:44.307Z,26.81
2022-11-04T02:16:14.431Z,26.81
2022-11-04T02:16:44.563Z,26.81
2022-11-04T02:17:14.551Z,26.81
2022-11-04T02:17:44.546Z,26.79
2022-11-04T02:18:14.686Z,26.79
2022-11-04T02:18:44.780Z,26.79
2022-11-04T02:19:14.903Z,26.78
2022-11-04T02:19:44.895Z,26.78
2022-11-04T02:20:15.021Z,26.81
2022-11-04T02:20:45.016Z,26.82
2022-11-04T02:21:15.010Z,26.78
2022-11-04T02:21:45.145Z,26.79
2022-11-04T02:22:15.133Z,26.81
2022-11-04T02:22:45.129Z,26.79
2022-11-04T02:23:15.123Z,26.81
2022-11-04T02:23:45.115Z,26.78
2022-11-04T02:24:15.119Z,26.82
2022-11-04T02:24:45.122Z,26.78
2022-11-04T02:25:15.112Z,26.78
2022-11-04T02:26:21.743Z,26.78
2022-11-04T02:26:51.817Z,26.75
2022-11-04T02:27:21.902Z,26.78
2022-11-04T02:27:51.983Z,26.77
2022-11-04T02:28:22.099Z,26.77
2022-11-04T02:28:52.179Z,26.75
2022-11-04T02:29:22.263Z,26.77
2022-11-04T02:29:52.348Z,26.77
2022-11-04T02:30:22.432Z,26.78
2022-11-04T02:30:52.510Z,26.78
2022-11-04T02:31:22.613Z,26.78
2022-11-04T02:31:52.690Z,26.78
2022-11-04T02:32:22.776Z,26.77
2022-11-04T02:32:52.870Z,26.77
2022-11-04T02:33:22.958Z,26.77
2022-11-04T02:33:53.025Z,26.77
2022-11-04T02:34:23.114Z,26.77
2022-11-04T02:34:53.189Z,26.78
2022-11-04T02:35:23.281Z,26.77
2022-11-04T02:35:53.350Z,26.78
2022-11-04T02:36:23.488Z,26.77
2022-11-04T02:36:53.478Z,26.75
2022-11-04T02:37:23.473Z,26.75
2022-11-04T02:38:23.572Z,26.77
2022-11-04T02:38:53.557Z,26.75
2022-11-04T02:39:23.557Z,26.77
2022-11-04T02:39:53.576Z,26.75
2022-11-04T02:40:23.574Z,26.77
2022-11-04T02:40:53.565Z,26.77
2022-11-04T02:41:23.695Z,26.77
2022-11-04T02:41:53.691Z,26.77
2022-11-04T02:42:23.806Z,26.77
2022-11-04T02:42:53.924Z,26.74
2022-11-04T02:43:23.921Z,26.77
2022-11-04T02:43:54.034Z,26.77
2022-11-04T02:44:24.155Z,26.74
2022-11-04T02:44:54.274Z,26.75
2022-11-04T02:45:24.391Z,26.74
2022-11-04T02:45:54.392Z,26.75
2022-11-04T02:46:24.525Z,26.75
2022-11-04T02:46:54.519Z,26.75
2022-11-04T02:47:24.516Z,26.75
2022-11-04T02:47:54.635Z,26.75
2022-11-04T02:48:24.754Z,26.74
2022-11-04T02:48:54.774Z,26.77
2022-11-04T02:49:24.868Z,26.78
2022-11-04T02:49:54.864Z,26.75
2022-11-04T02:50:24.860Z,26.75
2022-11-04T02:50:54.972Z,26.77
2022-11-04T02:51:25.100Z,26.72
2022-11-04T02:51:55.091Z,26.75
2022-11-04T02:52:25.218Z,26.72
2022-11-04T02:52:55.210Z,26.75
2022-11-04T02:53:25.326Z,26.77
2022-11-04T02:53:55.445Z,26.72
2022-11-04T02:54:25.449Z,26.75
2022-11-04T02:54:55.437Z,26.74
2022-11-04T02:55:25.556Z,26.72
2022-11-04T02:55:55.549Z,26.74
2022-11-04T02:56:25.664Z,26.72
2022-11-04T02:56:55.655Z,26.74
2022-11-04T02:57:25.775Z,26.71
2022-11-04T02:57:55.889Z,26.74
2022-11-04T02:58:25.888Z,26.74
2022-11-04T02:58:56.004Z,26.74
2022-11-04T02:59:26.002Z,26.72
2022-11-04T02:59:55.996Z,26.74
2022-11-04T03:00:26.117Z,26.72
2022-11-04T03:00:56.325Z,26.72
2022-11-04T03:01:26.547Z,26.72
2022-11-04T03:01:56.456Z,26.72
2022-11-04T03:02:26.379Z,26.71
2022-11-04T03:02:56.366Z,26.74
2022-11-04T03:03:26.484Z,26.74
2022-11-04T03:03:56.602Z,26.71
2022-11-04T03:04:26.622Z,26.72
2022-11-04T03:04:56.715Z,26.72
2022-11-04T03:05:26.834Z,26.72
2022-11-04T03:05:56.826Z,26.71
2022-11-04T03:06:26.952Z,26.74
2022-11-04T03:06:57.037Z,26.72
2022-11-04T03:07:27.060Z,26.71
2022-11-04T03:07:57.055Z,26.72
2022-11-04T03:08:27.172Z,26.68
2022-11-04T03:08:57.295Z,26.71
2022-11-04T03:09:27.287Z,26.72
2022-11-04T03:09:57.406Z,26.70
2022-11-04T03:10:27.521Z,26.71
2022-11-04T03:10:57.639Z,26.71
2022-11-04T03:11:27.759Z,26.68
2022-11-04T03:11:57.751Z,26.71
2022-11-04T03:12:27.870Z,26.70
2022-11-04T03:12:57.986Z,26.71
2022-11-04T03:13:28.103Z,26.70
2022-11-04T03:13:58.112Z,26.71
2022-11-04T03:14:28.220Z,26.71
2022-11-04T03:14:58.333Z,26.72
2022-11-04T03:15:28.451Z,26.72
2022-11-04T03:15:58.568Z,26.70
2022-11-04T03:16:28.691Z,26.71
2022-11-04T03:16:58.684Z,26.70
2022-11-04T03:17:28.801Z,26.68
2022-11-04T03:17:58.917Z,26.70
2022-11-04T03:18:29.036Z,26.71
2022-11-04T03:18:59.148Z,26.68
2022-11-04T03:19:29.284Z,26.71
2022-11-04T03:19:59.378Z,26.70
2022-11-04T03:20:29.495Z,26.71
2022-11-04T03:20:59.607Z,26.68
2022-11-04T03:21:29.607Z,26.68
2022-11-04T03:21:59.721Z,26.68
2022-11-04T03:22:29.843Z,26.67
2022-11-04T03:22:59.951Z,26.67
2022-11-04T03:23:29.928Z,26.67
2022-11-04T03:23:59.993Z,26.67
2022-11-04T03:24:29.988Z,26.67
2022-11-04T03:25:00.120Z,26.68
2022-11-04T03:25:30.226Z,26.68
2022-11-04T03:26:00.337Z,26.68
2022-11-04T03:26:30.412Z,26.70
2022-11-04T03:27:00.489Z,26.68
2022-11-04T03:27:30.575Z,26.65
2022-11-04T03:28:00.650Z,26.70
2022-11-04T03:28:30.733Z,26.70
2022-11-04T03:29:00.815Z,26.68
2022-11-04T03:29:30.898Z,26.68
2022-11-04T03:30:01.066Z,26.67
2022-11-04T03:30:31.038Z,26.67
2022-11-04T03:31:01.119Z,26.68
2022-11-04T03:31:31.200Z,26.68
2022-11-04T03:32:01.280Z,26.68
2022-11-04T03:32:31.396Z,26.70
2022-11-04T03:33:01.477Z,26.67
2022-11-04T03:33:31.565Z,26.70
2022-11-04T03:34:01.648Z,26.70
2022-11-04T03:34:31.729Z,26.67
2022-11-04T03:35:01.819Z,26.71
2022-11-04T03:35:31.877Z,26.67
2022-11-04T03:36:01.982Z,26.68
2022-11-04T03:36:31.977Z,26.68
2022-11-04T03:37:01.967Z,26.68
2022-11-04T03:37:31.967Z,26.68
2022-11-04T03:38:02.088Z,26.68
2022-11-04T03:38:32.202Z,26.68
2022-11-04T03:39:02.194Z,26.67
2022-11-04T03:39:32.317Z,26.64
2022-11-04T03:40:02.308Z,26.67
2022-11-04T03:40:32.307Z,26.67
2022-11-04T03:41:02.421Z,26.65
2022-11-04T03:41:32.422Z,26.67
2022-11-04T03:42:02.425Z,26.65
2022-11-04T03:42:32.540Z,26.67
2022-11-04T03:43:02.530Z,26.65
2022-11-04T03:43:32.651Z,26.67
2022-11-04T03:44:02.644Z,26.65
2022-11-04T03:44:32.641Z,26.64
2022-11-04T03:45:02.635Z,26.64
2022-11-04T03:45:32.755Z,26.65
2022-11-04T03:46:02.753Z,26.67
2022-11-04T03:46:32.877Z,26.65
2022-11-04T03:47:02.868Z,26.64
2022-11-04T03:47:32.866Z,26.65
2022-11-04T03:48:02.983Z,26.67
2022-11-04T03:48:32.978Z,26.67
2022-11-04T03:49:03.100Z,26.68
2022-11-04T03:49:33.212Z,26.67
2022-11-04T03:50:03.208Z,26.64
2022-11-04T03:50:33.349Z,26.67
2022-11-04T03:51:03.318Z,26.67
2022-11-04T03:51:33.442Z,26.67
2022-11-04T03:52:03.435Z,26.70
2022-11-04T03:52:33.550Z,26.68
2022-11-04T03:53:03.703Z,26.70
2022-11-04T03:53:33.584Z,26.70
2022-11-04T03:54:03.583Z,26.70
2022-11-04T03:54:33.704Z,26.70
2022-11-04T03:55:03.818Z,26.70
2022-11-04T03:55:33.941Z,26.71
2022-11-04T03:56:04.059Z,26.70
2022-11-04T03:56:34.183Z,26.72
2022-11-04T03:57:04.182Z,26.71
2022-11-04T03:57:34.298Z,26.72
2022-11-04T03:58:04.293Z,26.71
2022-11-04T03:58:34.290Z,26.74
2022-11-04T03:59:04.408Z,26.72
2022-11-04T03:59:34.402Z,26.74
2022-11-04T04:00:04.395Z,26.77
2022-11-04T04:00:34.515Z,26.77
2022-11-04T04:01:04.548Z,26.77
2022-11-04T04:01:34.694Z,26.77
2022-11-04T04:02:04.657Z,26.79
2022-11-04T04:02:34.646Z,26.79
2022-11-04T04:03:04.638Z,26.81
2022-11-04T04:03:34.757Z,26.79
2022-11-04T04:04:04.752Z,26.78
2022-11-04T04:04:34.879Z,26.79
2022-11-04T04:05:04.872Z,26.82
2022-11-04T04:05:34.867Z,26.81
2022-11-04T04:06:05.007Z,26.79
2022-11-04T04:06:35.104Z,26.81
2022-11-04T04:07:05.104Z,26.82
2022-11-04T04:07:35.096Z,26.84
2022-11-04T04:08:05.118Z,26.82
2022-11-04T04:08:35.115Z,26.84
2022-11-04T04:09:05.113Z,26.84
2022-11-04T04:09:35.104Z,26.85
2022-11-04T04:10:05.222Z,26.87
2022-11-04T04:10:35.221Z,26.87
2022-11-04T04:11:05.343Z,26.87
2022-11-04T04:11:35.462Z,26.85
2022-11-04T04:12:05.455Z,26.89
2022-11-04T04:12:35.571Z,26.89
2022-11-04T04:13:05.568Z,26.88
2022-11-04T04:13:35.560Z,26.89
2022-11-04T04:14:05.680Z,26.85
2022-11-04T04:14:35.680Z,26.91
2022-11-04T04:15:05.801Z,26.88
2022-11-04T04:15:35.919Z,26.91
2022-11-04T04:16:05.922Z,26.91
2022-11-04T04:16:35.915Z,26.91
2022-11-04T04:17:05.934Z,26.91
2022-11-04T04:17:35.904Z,26.92
2022-11-04T04:18:06.231Z,26.95
2022-11-04T04:18:36.028Z,26.94
2022-11-04T04:19:06.150Z,26.94
2022-11-04T04:19:36.267Z,26.94
2022-11-04T04:20:06.385Z,26.94
2022-11-04T04:20:36.501Z,26.95
2022-11-04T04:21:06.626Z,26.95
2022-11-04T04:21:36.638Z,26.94
2022-11-04T04:22:06.734Z,26.95
2022-11-04T04:22:36.730Z,26.95
2022-11-04T04:23:06.728Z,26.95
2022-11-04T04:23:36.841Z,26.95
2022-11-04T04:24:06.836Z,26.98
2022-11-04T04:24:36.830Z,26.99
2022-11-04T04:25:06.954Z,26.94
2022-11-04T04:25:36.944Z,26.98
2022-11-04T04:26:07.039Z,26.96
2022-11-04T04:26:37.127Z,26.95
2022-11-04T04:27:07.211Z,26.96
2022-11-04T04:27:37.294Z,26.96
2022-11-04T04:28:07.698Z,26.98
2022-11-04T04:28:37.486Z,26.95
2022-11-04T04:29:07.564Z,26.96
2022-11-04T04:29:37.645Z,26.96
2022-11-04T04:30:07.732Z,26.94
2022-11-04T04:30:37.804Z,26.95
2022-11-04T04:31:07.890Z,26.96
2022-11-04T04:31:37.976Z,26.96
2022-11-04T04:32:08.056Z,26.96
2022-11-04T04:32:38.135Z,26.98
2022-11-04T04:33:08.218Z,26.95
2022-11-04T04:33:38.301Z,26.96
2022-11-04T04:34:08.384Z,26.95
2022-11-04T04:34:38.463Z,26.96
2022-11-04T04:35:08.550Z,26.96
2022-11-04T04:35:38.627Z,26.98
2022-11-04T04:36:08.733Z,26.94
2022-11-04T04:36:38.873Z,26.96
2022-11-04T04:37:08.848Z,26.96
2022-11-04T04:37:38.840Z,26.98
2022-11-04T04:38:09.414Z,26.99
2022-11-04T04:38:38.971Z,26.98
2022-11-04T04:39:09.092Z,26.95
2022-11-04T04:39:39.204Z,26.96
2022-11-04T04:40:09.201Z,26.98
2022-11-04T04:40:39.317Z,26.98
2022-11-04T04:41:09.447Z,26.96
2022-11-04T04:41:39.434Z,26.96
2022-11-04T04:42:09.427Z,26.96
2022-11-04T04:42:39.544Z,27.01
2022-11-04T04:43:09.928Z,26.98
2022-11-04T04:43:39.645Z,27.01
2022-11-04T04:44:09.639Z,26.99
2022-11-04T04:44:39.631Z,26.98
2022-11-04T04:45:09.751Z,26.98
2022-11-04T04:45:39.740Z,26.98
2022-11-04T04:46:09.735Z,26.98
2022-11-04T04:46:39.851Z,26.99
2022-11-04T04:47:09.852Z,26.98
2022-11-04T04:47:39.968Z,26.98
2022-11-04T04:48:09.961Z,26.96
2022-11-04T04:48:40.076Z,26.99
2022-11-04T04:49:10.198Z,26.96
2022-11-04T04:49:40.316Z,26.98
2022-11-04T04:50:10.432Z,27.01
2022-11-04T04:50:40.553Z,26.99
2022-11-04T04:51:10.757Z,26.99
2022-11-04T04:51:40.759Z,26.99
2022-11-04T04:52:10.779Z,26.99
2022-11-04T04:52:40.869Z,27.01
2022-11-04T04:53:11.353Z,26.98
2022-11-04T04:53:40.896Z,26.99
2022-11-04T04:54:11.015Z,26.98
2022-11-04T04:54:41.135Z,26.96
2022-11-04T04:55:11.252Z,26.98
2022-11-04T04:55:41.910Z,26.98
2022-11-04T04:56:11.412Z,26.98
2022-11-04T04:56:41.536Z,27.01
2022-11-04T04:57:11.530Z,26.98
2022-11-04T04:57:41.522Z,26.98
2022-11-04T04:58:11.639Z,26.99
2022-11-04T04:58:41.757Z,26.96
2022-11-04T04:59:11.755Z,26.99
2022-11-04T04:59:41.753Z,26.96
2022-11-04T05:00:11.864Z,26.96
2022-11-04T05:00:41.979Z,26.98
2022-11-04T05:01:12.058Z,26.98
2022-11-04T05:01:42.273Z,26.98
2022-11-04T05:02:12.328Z,26.98
2022-11-04T05:02:42.387Z,26.96
2022-11-04T05:03:12.528Z,26.98
2022-11-04T05:03:45.140Z,26.95
2022-11-04T05:04:12.487Z,26.96
2022-11-04T05:04:42.483Z,26.98
2022-11-04T05:05:12.716Z,26.96
2022-11-04T05:05:42.702Z,26.96
2022-11-04T05:06:12.822Z,26.96
2022-11-04T05:06:42.939Z,26.96
2022-11-04T05:07:12.938Z,26.95
2022-11-04T05:07:43.075Z,26.96
2022-11-04T05:08:13.385Z,26.98
2022-11-04T05:08:43.245Z,26.99
2022-11-04T05:09:13.368Z,26.98
2022-11-04T05:09:43.478Z,26.98
2022-11-04T05:10:13.599Z,27.01
2022-11-04T05:10:43.592Z,26.96
2022-11-04T05:11:13.709Z,26.99
2022-11-04T05:11:43.704Z,26.96
2022-11-04T05:12:13.699Z,26.98
2022-11-04T05:12:43.705Z,26.98
2022-11-04T05:13:13.703Z,26.96
2022-11-04T05:13:43.816Z,26.98
2022-11-04T05:14:13.936Z,26.98
2022-11-04T05:14:43.930Z,26.98
2022-11-04T05:15:14.060Z,26.96
2022-11-04T05:15:44.056Z,26.96
2022-11-04T05:16:14.046Z,26.96
2022-11-04T05:16:44.056Z,26.96
2022-11-04T05:17:14.053Z,26.96
2022-11-04T05:17:44.071Z,26.98
2022-11-04T05:18:14.065Z,26.96
2022-11-04T05:18:44.060Z,26.99
2022-11-04T05:19:14.178Z,26.99
2022-11-04T05:19:44.177Z,27.01
2022-11-04T05:20:14.172Z,26.99
2022-11-04T05:20:44.282Z,26.99
2022-11-04T05:21:14.280Z,26.99
2022-11-04T05:21:44.278Z,27.01
2022-11-04T05:22:14.271Z,26.99
2022-11-04T05:22:44.270Z,26.98
2022-11-04T05:23:14.419Z,26.99
2022-11-04T05:23:44.376Z,27.01
2022-11-04T05:24:14.498Z,26.98
2022-11-04T05:24:44.625Z,27.01
2022-11-04T05:25:14.621Z,26.99
2022-11-04T05:25:44.736Z,26.99
2022-11-04T05:26:14.827Z,26.99
2022-11-04T05:26:44.904Z,27.03
2022-11-04T05:27:14.985Z,27.03
2022-11-04T05:27:45.058Z,27.01
2022-11-04T05:28:15.145Z,27.02
2022-11-04T05:28:45.226Z,27.03
2022-11-04T05:29:45.347Z,26.99
2022-11-04T05:30:15.455Z,27.01
2022-11-04T05:30:45.504Z,27.01
2022-11-04T05:31:15.587Z,27.02
2022-11-04T05:31:45.670Z,27.02
2022-11-04T05:32:15.748Z,27.03
2022-11-04T05:32:45.829Z,27.01
2022-11-04T05:33:15.912Z,26.99
2022-11-04T05:33:45.992Z,26.98
2022-11-04T05:34:16.079Z,27.01
2022-11-04T05:34:46.150Z,27.01
2022-11-04T05:35:16.236Z,26.99
2022-11-04T05:35:46.311Z,26.98
2022-11-04T05:36:16.429Z,26.98
2022-11-04T05:36:46.419Z,26.99
2022-11-04T05:37:16.555Z,27.01
2022-11-04T05:37:46.651Z,26.99
2022-11-04T05:38:16.655Z,26.99
2022-11-04T05:38:46.663Z,27.01
2022-11-04T05:39:16.764Z,27.02
2022-11-04T05:39:46.875Z,26.99
2022-11-04T05:40:17.005Z,26.98
2022-11-04T05:40:47.110Z,26.99
2022-11-04T05:41:17.225Z,27.02
2022-11-04T05:41:47.347Z,27.01
2022-11-04T05:42:17.466Z,27.02
2022-11-04T05:42:47.576Z,27.01
2022-11-04T05:43:17.702Z,27.03
2022-11-04T05:43:47.812Z,27.03
2022-11-04T05:44:17.930Z,27.05
2022-11-04T05:44:48.039Z,27.05
2022-11-04T05:45:18.161Z,27.05
2022-11-04T05:45:48.173Z,27.05
2022-11-04T05:46:18.159Z,27.06
2022-11-04T05:46:48.166Z,27.06
2022-11-04T05:47:18.160Z,27.07
2022-11-04T05:47:48.274Z,27.07
2022-11-04T05:48:18.268Z,27.07
2022-11-04T05:48:48.386Z,27.05
2022-11-04T05:49:18.504Z,27.06
2022-11-04T05:49:48.623Z,27.05
2022-11-04T05:50:18.614Z,27.10
2022-11-04T05:50:48.733Z,27.07
2022-11-04T05:51:18.854Z,27.07
2022-11-04T05:51:48.848Z,27.06
2022-11-04T05:52:18.965Z,27.09
2022-11-04T05:52:49.080Z,27.10
2022-11-04T05:53:19.263Z,27.09
2022-11-04T05:53:49.255Z,27.07
2022-11-04T05:54:19.394Z,27.09
2022-11-04T05:54:49.372Z,27.09
2022-11-04T05:55:19.489Z,27.12
2022-11-04T05:55:49.602Z,27.12
2022-11-04T05:56:19.715Z,27.10
2022-11-04T05:56:49.717Z,27.10
2022-11-04T05:57:19.710Z,27.12
2022-11-04T05:57:49.825Z,27.13
2022-11-04T05:58:19.945Z,27.12
2022-11-04T05:58:49.941Z,27.10
2022-11-04T05:59:20.058Z,27.12
2022-11-04T05:59:50.175Z,27.09
2022-11-04T06:00:20.293Z,27.13
2022-11-04T06:00:50.413Z,27.12
2022-11-04T06:01:20.584Z,27.10
2022-11-04T06:01:50.695Z,27.10
2022-11-04T06:02:20.768Z,27.12
2022-11-04T06:02:50.722Z,27.10
2022-11-04T06:03:20.833Z,27.06
2022-11-04T06:03:50.714Z,27.10
2022-11-04T06:04:20.832Z,27.09
2022-11-04T06:04:50.830Z,27.07
2022-11-04T06:05:20.833Z,27.09
2022-11-04T06:05:50.942Z,27.09
2022-11-04T06:06:21.064Z,27.07
2022-11-04T06:06:51.185Z,27.07
2022-11-04T06:07:21.303Z,27.07
2022-11-04T06:07:51.298Z,27.10
2022-11-04T06:08:21.414Z,27.09
2022-11-04T06:08:51.532Z,27.07
2022-11-04T06:09:21.650Z,27.07
2022-11-04T06:09:51.672Z,27.05
2022-11-04T06:10:21.643Z,27.06
2022-11-04T06:10:51.635Z,27.07
2022-11-04T06:11:21.766Z,27.06
2022-11-04T06:11:51.756Z,27.06
2022-11-04T06:12:21.866Z,27.03
2022-11-04T06:12:51.860Z,27.05
2022-11-04T06:13:21.982Z,27.03
2022-11-04T06:13:52.097Z,27.05
2022-11-04T06:14:22.215Z,27.07
2022-11-04T06:14:52.218Z,27.05
2022-11-04T06:15:22.332Z,27.05
2022-11-04T06:15:52.452Z,27.03
2022-11-04T06:16:22.442Z,27.05
2022-11-04T06:16:52.562Z,27.05
2022-11-04T06:17:22.558Z,27.02
2022-11-04T06:17:52.672Z,27.01
2022-11-04T06:18:22.790Z,27.02
2022-11-04T06:18:52.900Z,27.02
2022-11-04T06:19:23.019Z,27.03
2022-11-04T06:19:53.140Z,27.05
2022-11-04T06:20:23.253Z,27.02
2022-11-04T06:20:53.371Z,27.03
2022-11-04T06:21:23.487Z,27.01
2022-11-04T06:21:53.611Z,26.99
2022-11-04T06:22:23.728Z,27.02
2022-11-04T06:22:53.842Z,27.01
2022-11-04T06:23:23.959Z,27.02
2022-11-04T06:23:54.076Z,27.01
2022-11-04T06:24:24.191Z,27.01
2022-11-04T06:24:54.213Z,27.05
2022-11-04T06:25:24.308Z,27.02
2022-11-04T06:25:54.410Z,26.99
2022-11-04T06:26:27.903Z,26.99
2022-11-04T06:26:54.590Z,26.98
2022-11-04T06:27:24.665Z,26.99
2022-11-04T06:27:54.745Z,27.01
2022-11-04T06:28:24.828Z,26.99
2022-11-04T06:28:54.906Z,26.98